createdAt,value
2023-01-28T00:02:49.062Z,5.47
2023-01-28T00:17:53.360Z,5.93
2023-01-28T00:32:58.214Z,5.47
2023-01-28T00:48:02.505Z,5.60
2023-01-28T01:03:07.323Z,5.83
2023-01-28T01:18:12.171Z,4.73
2023-01-28T01:33:17.731Z,6.07
2023-01-28T01:48:27.762Z,5.13
2023-01-28T02:03:49.549Z,5.57
2023-01-28T02:18:53.429Z,5.37
2023-01-28T02:34:00.791Z,5.60
2023-01-28T02:49:07.027Z,5.20
2023-01-28T03:04:20.229Z,5.80
2023-01-28T03:19:45.227Z,5.60
2023-01-28T03:35:09.297Z,5.70
2023-01-28T03:50:14.892Z,5.40
2023-01-28T04:05:33.611Z,5.33
2023-01-28T04:20:38.762Z,5.83
2023-01-28T04:35:43.331Z,5.70
2023-01-28T04:50:57.287Z,5.50
2023-01-28T05:06:24.916Z,5.63
2023-01-28T05:21:36.025Z,5.90
2023-01-28T05:36:45.420Z,5.90
2023-01-28T05:52:04.761Z,6.00
2023-01-28T06:07:09.179Z,5.60
2023-01-28T06:22:15.845Z,6.00
2023-01-28T06:52:44.508Z,7.43
2023-01-28T07:07:48.990Z,7.83
2023-01-28T07:22:53.183Z,6.53
2023-01-28T07:38:00.268Z,7.23
2023-01-28T07:53:05.500Z,7.50
2023-01-28T08:08:10.549Z,7.20
2023-01-28T08:23:18.531Z,8.03
2023-01-28T08:38:24.464Z,8.40
2023-01-28T08:53:29.238Z,8.90
2023-01-28T09:08:34.122Z,8.30
2023-01-28T09:23:39.399Z,7.00
2023-01-28T09:38:44.105Z,8.53
2023-01-28T09:53:50.191Z,7.93
2023-01-28T10:09:07.547Z,8.53
2023-01-28T10:24:34.222Z,8.10
2023-01-28T10:39:39.271Z,8.57
2023-01-28T10:54:43.593Z,8.40
2023-01-28T11:09:48.959Z,8.60
2023-01-28T11:24:53.484Z,10.60
2023-01-28T11:40:22.054Z,7.33
2023-01-28T11:55:45.931Z,7.93
2023-01-28T12:10:58.795Z,8.60
2023-01-28T12:26:09.144Z,8.83
2023-01-28T12:41:18.090Z,8.23
2023-01-28T12:56:26.770Z,8.47
2023-01-28T13:11:35.854Z,9.10
2023-01-28T13:26:46.678Z,9.90
2023-01-28T13:41:52.284Z,10.47
2023-01-28T13:57:02.200Z,8.13
2023-01-28T14:12:22.811Z,8.50
2023-01-28T14:27:31.146Z,8.83
2023-01-28T14:42:43.865Z,8.53
2023-01-28T14:57:52.066Z,9.30
2023-01-28T15:13:07.064Z,8.13
2023-01-28T15:28:20.103Z,8.90
2023-01-28T15:43:26.819Z,9.50
2023-01-28T15:58:34.814Z,10.23
2023-01-28T16:13:43.655Z,10.93
2023-01-28T16:28:48.622Z,9.67
2023-01-28T16:43:52.970Z,10.77
2023-01-28T16:58:57.783Z,10.40
2023-01-28T17:14:02.529Z,8.70
2023-01-28T17:29:08.310Z,7.23
2023-01-28T17:44:15.784Z,7.90
2023-01-28T17:59:20.191Z,8.20
2023-01-28T18:14:24.679Z,10.23
2023-01-28T18:29:30.324Z,9.83
2023-01-28T18:44:34.609Z,7.80
2023-01-28T18:59:38.921Z,7.03
2023-01-28T19:14:43.190Z,8.37
2023-01-28T19:29:48.435Z,9.10
2023-01-28T19:44:52.918Z,8.00
2023-01-28T19:59:57.497Z,7.63
2023-01-28T20:15:01.912Z,8.93
2023-01-28T20:30:08.358Z,9.10
2023-01-28T20:45:12.296Z,7.87
2023-01-28T21:00:17.269Z,9.17
2023-01-28T21:15:22.037Z,8.50
2023-01-28T21:30:27.557Z,8.40
2023-01-28T21:45:32.141Z,8.90
2023-01-28T22:00:37.214Z,8.10
2023-01-28T22:15:41.862Z,8.23
2023-01-28T22:30:46.250Z,9.53
2023-01-28T22:45:59.861Z,8.60
2023-01-28T23:01:04.384Z,7.43
2023-01-28T23:16:28.961Z,7.70
2023-01-28T23:31:33.710Z,7.33
2023-01-28T23:46:40.274Z,8.07
